Atwater, Ohio
Current Conditions -  °F | °C
As of 9:41 AM on Sunday 23 Nov 2014 (Local Time) from KPOV Reporting Station
Light Rain Light Rain  
Wind Chill: 41°   Ceiling: 4600
Heat Index: 44°   Visibility: 10mi
Dew Point: 35°   Wind: 6mph
Humidity: 69%   Direction: 140°SE
Pressure: 30.03"   Gusts: NA
Location:  41.02°N, 81.16°W
Report Text: KPOV 231441Z AUTO 14005KT 10SM -RA OVC046 07/02 A3003 RMK AO2 T00690016
Loading
Personal Weather Stations






























Interactive Weather Map New forecast layout! Learn more

10-Day Weather Forecast

Advertisements
Track Severe Weather on mobile